Time;durP1;ratioP1;P1;durP2;ratioP2;P2;SDS_P1;SDS_P2;PMS_P1;PMS_P2;Temp;Humidity;BMP_temperature;BMP_pressure;BME280_temperature;BME280_humidity;BME280_pressure;Samples;Min_cycle;Max_cycle;Signal;HPM_P1;HPM_P2
2020/12/31 00:01:56;;;;;;;16.60;10.23;;;;;;;7.99;69.42;95635.92;1737473;80;21251;-84
2020/12/31 00:05:09;;;;;;;19.40;11.10;;;;;;;7.94;69.67;95632.45;1736776;79;21078;-84
2020/12/31 00:08:44;;;;;;;17.43;10.43;;;;;;;7.91;69.71;95632.78;1731853;77;21273;31
2020/12/31 00:11:54;;;;;;;18.85;9.28;;;;;;;7.90;69.82;95615.41;1711517;81;21150;-84
2020/12/31 00:42:31;;;;;;;16.55;7.90;;;;;;;8.18;69.14;95696.48;1736988;77;21160;-85
2020/12/31 00:50:02;;;;;;;16.52;8.95;;;;;;;8.19;69.25;95698.16;1696999;78;21259;-85
2020/12/31 00:53:15;;;;;;;35.43;21.10;;;;;;;8.23;69.20;95702.09;1686070;81;21280;-85
2020/12/31 00:56:26;;;;;;;62.00;35.52;;;;;;;8.27;68.69;95690.31;1736177;78;21065;-84
2020/12/31 00:59:36;;;;;;;76.15;46.25;;;;;;;8.25;68.25;95709.33;1741711;80;21236;-84
2020/12/31 01:02:45;;;;;;;72.92;47.93;;;;;;;8.11;67.39;95725.62;1716630;80;21166;-83
2020/12/31 01:05:40;;;;;;;69.62;47.70;;;;;;;7.84;66.81;95730.53;1714636;79;21350;-83
2020/12/31 01:08:51;;;;;;;74.60;47.88;;;;;;;7.50;67.35;95726.00;1718633;81;21224;-83
2020/12/31 01:12:04;;;;;;;77.37;49.38;;;;;;;7.25;67.96;95730.70;1717915;82;21102;-83
2020/12/31 01:15:14;;;;;;;76.42;46.13;;;;;;;6.99;68.56;95743.18;1719075;82;21181;-84
2020/12/31 01:18:23;;;;;;;73.00;46.70;;;;;;;6.77;69.29;95741.81;1709529;83;21093;-85
2020/12/31 01:21:40;;;;;;;72.78;46.75;;;;;;;6.65;69.82;95735.95;1706114;82;21146;-85
2020/12/31 01:24:51;;;;;;;65.95;43.00;;;;;;;6.59;70.22;95727.38;1687645;83;21153;-84
2020/12/31 01:28:01;;;;;;;71.20;45.23;;;;;;;6.63;70.52;95737.88;1713664;80;21065;-83
2020/12/31 01:35:00;;;;;;;72.05;45.83;;;;;;;6.67;70.58;95745.78;1765665;79;21173;-85
2020/12/31 01:38:12;;;;;;;67.53;42.10;;;;;;;6.66;70.74;95761.14;1791452;78;21117;-85
2020/12/31 01:41:24;;;;;;;73.28;44.55;;;;;;;6.64;70.76;95762.23;1762526;79;21141;-84
2020/12/31 01:44:34;;;;;;;73.15;45.88;;;;;;;6.54;70.92;95771.94;1779177;78;21145;-84
2020/12/31 01:48:09;;;;;;;65.63;44.93;;;;;;;6.46;71.28;95777.05;1747073;78;21315;31
2020/12/31 01:51:31;;;;;;;68.00;45.10;;;;;;;6.42;71.50;95770.81;1686419;79;21176;31
2020/12/31 01:54:43;;;;;;;65.60;43.52;;;;;;;6.43;71.49;95776.38;1599263;87;21195;-85
2020/12/31 01:57:54;;;;;;;63.70;42.65;;;;;;;6.44;71.54;95777.20;1592550;87;21253;-84
2020/12/31 02:01:06;;;;;;;57.38;41.30;;;;;;;6.42;71.55;95772.12;1623462;86;21195;-83
2020/12/31 02:04:17;;;;;;;57.13;40.20;;;;;;;6.44;71.64;95770.66;1620784;86;21264;-84
2020/12/31 02:07:28;;;;;;;64.85;43.02;;;;;;;6.50;71.73;95771.87;1669452;78;21129;-86
2020/12/31 02:10:50;;;;;;;63.55;42.40;;;;;;;6.58;71.90;95774.58;1723491;80;21114;-85
2020/12/31 02:14:07;;;;;;;59.53;41.00;;;;;;;6.60;71.87;95785.27;1753759;76;21291;-84
2020/12/31 02:17:19;;;;;;;55.78;39.90;;;;;;;6.63;72.09;95795.91;1720136;82;21246;-84
2020/12/31 02:29:38;;;;;;;56.00;38.83;;;;;;;6.42;73.22;95790.91;1749664;78;22702;-84
2020/12/31 02:33:12;;;;;;;57.10;37.00;;;;;;;6.45;73.39;95799.76;1701517;78;21647;31
2020/12/31 02:36:23;;;;;;;56.00;36.68;;;;;;;6.46;73.71;95798.78;1680831;79;21373;-85
2020/12/31 02:39:31;;;;;;;62.03;41.08;;;;;;;6.42;74.04;95798.75;1698732;82;21242;-85
2020/12/31 02:45:30;;;;;;;58.90;38.42;;;;;;;6.41;74.77;95787.47;1694659;79;22072;-85
2020/12/31 02:48:40;;;;;;;59.60;39.58;;;;;;;6.46;74.59;95785.71;1798223;77;21074;-84
2020/12/31 02:51:47;;;;;;;66.85;40.70;;;;;;;6.45;74.52;95780.63;1833218;77;21152;-85
2020/12/31 02:54:54;;;;;;;59.90;41.25;;;;;;;6.48;74.45;95779.88;1828687;77;21045;-85
2020/12/31 02:58:02;;;;;;;60.67;39.92;;;;;;;6.50;74.86;95779.23;1836938;77;21210;-85
2020/12/31 03:01:13;;;;;;;62.38;44.83;;;;;;;6.54;74.90;95787.63;1819798;77;21038;-85
2020/12/31 03:04:21;;;;;;;76.35;50.83;;;;;;;6.51;74.80;95791.34;1819159;77;21466;-85
2020/12/31 03:07:32;;;;;;;72.78;48.23;;;;;;;6.50;75.16;95801.47;1822800;77;21506;-85
2020/12/31 03:10:47;;;;;;;65.22;44.67;;;;;;;6.57;75.14;95796.00;1821454;77;21043;-85
